Forestburg, TX (76239)

4:09 PM CDT on August 30, 2015 (GMT -0500)
Blue Sky Ranch | | Change Station
CLOSE
Current Station
Personal Weather Station
Location: Forestburg, TX
Elevation: 1020 ft
Nearby Weather Stations

Elev 1020 ft 33.52 °N, 97.62 °W | Updated 11 seconds ago

Clear
Clear
94.8 °F
Feels Like 94 °F
N
14.8
Wind Variable Wind from SSW
Gusts 19.7 mph

Today
High -- | Low -- °F
--% Chance of Precip.
Yesterday
High -- | Low -- °F
Precip. -- in
7:02 AM 7:58 PM
Full, 98% visible
Pressure 29.95 in
Visibility 10.0 miles
Clouds Clear
Heat Index 94 °F
Dew Point 59 °F
Humidity 30%
Rainfall 0.00 in
Snow Depth Not available.
UV 4.0 out of 12
Pollen 8.70 out of 12
Air Quality Not available.
Flu Activity Not available.
METAR K0F2 302055Z AUTO 19005KT 10SM CLR 35/11 A2995 RMK AO2 T03510111
Pressure 29.95 in
Visibility 10.0 miles
Clouds Clear
Heat Index 94 °F
Dew Point 59 °F
Humidity 30%
Rainfall 0.00 in
Snow Depth Not available.
UV 4.0 out of 12
Pollen 8.70 out of 12
Air Quality Not available.
Flu Activity Not available.
METAR K0F2 302055Z AUTO 19005KT 10SM CLR 35/11 A2995 RMK AO2 T03510111
Nowcast | as of 3:16 PM CDT on August 30, 2015

Showers and thunderstorms will continue to develop the remainder of the afternoon. The bulk of the activity will be south of the I-20 corridor. The strongest storms will be capable of heavy rain...small hail...and wind gusts in excess of 40 mph. Those engaged in outdoor activities should keep abreast of the weather. Move indoors immediately if lightning is seen or thunder is heard.

×

10-Day Weather Forecast

×

Almanac

Astronomy

Aug. 30, 2015 Rise Set
Actual Time
Civil Twilight
Nautical Twilight
Astronomical Twilight
Moon
Length of Visible Light
Length of Day
Tomorrow will be .
, % of the Moon is Illuminated

Today's Extremes

State Highs State Lows

Community

WunderPhotos

Upload Photos

1,851,060 photos uploaded!

WunderBlogs® & News

Nearby

Air Quality

  Air Quality AQ Index Pollutant
Not available.

Snow Depth

Station Depth Elevation

Earthquake Activity

City Distance Mag. Time & Date
Minimum magnitude displayed is 2.5.

Coastal Water Temperatures

Place Temperature

Stations

Nearby Weather Stations

Station Location Temp. Windchill Dew Point Humidity Wind Precip. Elev Updated Type